Strona główna
METAR-TAF:

METAR-TAF

Lotnisko :

Port lotniczy Mosjøen

Mosjøen, Norwegia

Szerokość geograficzna: 65-48N, Długość geograficzna: 013-08E, wysokość: 70 m

Aktualna obserwacja pogody

Raport powstał 46 minut temu, godzina 16:20 UTC
Wiatr 2 kt od południe
Temperatura -7°C
Wilgotność 93%
Ciśnienie 1027 hPa
Widzialność 10 km lub więcej
Mało chmury na wysokości 2000 ft
Przerywane chmury na wysokości 3800 ft

METAR: ENMS 151620Z 17002KT 9999 FEW020 BKN038 M07/M08 Q1027 RMK WIND 412FT VRB02KT

czas: 18:06 (17:06 UTC)


TAF: brakujący

Obserwacja i prognoza pogody dla ponad 4000 lotnisk (raport METAR i TAF).

Dostępne stacje oznaczono żółtymi i czerwonymi punktami na mapie.

Najedź kursorem aby zobaczyć nazwę stacji.

Kliknij aby zobaczyć obserwacje i prognozy pogody.

Aby zmienić mapę: kliknij na zielony przycisk z czarnym krzyżykiem, aby powiększyć; na zielony przycisk z myślnikiem, aby pomniejszyć; na zielone strzałki, aby przejść do map sąsiednich.


METAR-TAF: